sensor_id;sensor_type;location;lat;lon;timestamp;pressure;altitude;pressure_sealevel;temperature;humidity
64886;BME280;51514;52.206;5.114;2023-02-11T00:01:40;103455.09;;;7.83;87.52
64886;BME280;51514;52.206;5.114;2023-02-11T00:04:06;103445.34;;;7.80;87.56
64886;BME280;51514;52.206;5.114;2023-02-11T00:06:32;103441.91;;;7.78;88.06
64886;BME280;51514;52.206;5.114;2023-02-11T00:08:58;103439.22;;;7.78;87.66
64886;BME280;51514;52.206;5.114;2023-02-11T00:11:25;103451.59;;;7.81;87.71
64886;BME280;51514;52.206;5.114;2023-02-11T00:13:54;103447.81;;;7.85;88.17
64886;BME280;51514;52.206;5.114;2023-02-11T00:16:20;103441.50;;;7.86;87.68
64886;BME280;51514;52.206;5.114;2023-02-11T00:18:46;103429.03;;;7.85;87.37
64886;BME280;51514;52.206;5.114;2023-02-11T00:21:17;103429.16;;;7.82;87.78
64886;BME280;51514;52.206;5.114;2023-02-11T00:23:44;103428.16;;;7.84;87.35
64886;BME280;51514;52.206;5.114;2023-02-11T00:26:25;103434.78;;;7.77;87.50
64886;BME280;51514;52.206;5.114;2023-02-11T00:28:51;103433.75;;;7.80;87.40
64886;BME280;51514;52.206;5.114;2023-02-11T00:31:18;103442.91;;;7.76;87.53
64886;BME280;51514;52.206;5.114;2023-02-11T00:33:45;103450.03;;;7.77;87.50
64886;BME280;51514;52.206;5.114;2023-02-11T00:36:13;103448.28;;;7.76;88.21
64886;BME280;51514;52.206;5.114;2023-02-11T00:38:39;103457.16;;;7.78;87.75
64886;BME280;51514;52.206;5.114;2023-02-11T00:41:06;103457.75;;;7.83;87.05
64886;BME280;51514;52.206;5.114;2023-02-11T00:43:31;103455.81;;;7.86;87.60
64886;BME280;51514;52.206;5.114;2023-02-11T00:45:58;103454.00;;;7.87;87.27
64886;BME280;51514;52.206;5.114;2023-02-11T00:48:23;103454.13;;;7.84;86.90
64886;BME280;51514;52.206;5.114;2023-02-11T00:50:48;103451.78;;;7.78;87.25
64886;BME280;51514;52.206;5.114;2023-02-11T00:53:14;103434.88;;;7.76;86.96
64886;BME280;51514;52.206;5.114;2023-02-11T00:55:39;103440.38;;;7.73;86.90
64886;BME280;51514;52.206;5.114;2023-02-11T00:58:05;103441.41;;;7.70;87.89
64886;BME280;51514;52.206;5.114;2023-02-11T01:00:30;103435.16;;;7.69;87.15
64886;BME280;51514;52.206;5.114;2023-02-11T01:02:55;103436.19;;;7.67;88.03
64886;BME280;51514;52.206;5.114;2023-02-11T01:05:21;103429.16;;;7.64;88.07
64886;BME280;51514;52.206;5.114;2023-02-11T01:07:46;103416.59;;;7.65;87.76
64886;BME280;51514;52.206;5.114;2023-02-11T01:10:12;103413.19;;;7.61;88.71
64886;BME280;51514;52.206;5.114;2023-02-11T01:12:37;103414.13;;;7.60;88.32
64886;BME280;51514;52.206;5.114;2023-02-11T01:15:05;103409.56;;;7.62;88.47
64886;BME280;51514;52.206;5.114;2023-02-11T01:17:31;103406.88;;;7.62;88.27
64886;BME280;51514;52.206;5.114;2023-02-11T01:19:56;103413.03;;;7.64;87.84
64886;BME280;51514;52.206;5.114;2023-02-11T01:22:21;103417.63;;;7.62;88.85
64886;BME280;51514;52.206;5.114;2023-02-11T01:24:47;103415.88;;;7.61;88.44
64886;BME280;51514;52.206;5.114;2023-02-11T01:27:12;103420.31;;;7.62;88.98
64886;BME280;51514;52.206;5.114;2023-02-11T01:29:37;103423.00;;;7.62;88.13
64886;BME280;51514;52.206;5.114;2023-02-11T01:32:03;103431.84;;;7.64;88.68
64886;BME280;51514;52.206;5.114;2023-02-11T01:34:28;103433.59;;;7.65;88.31
64886;BME280;51514;52.206;5.114;2023-02-11T01:36:57;103434.59;;;7.63;88.05
64886;BME280;51514;52.206;5.114;2023-02-11T01:39:24;103431.03;;;7.62;88.64
64886;BME280;51514;52.206;5.114;2023-02-11T01:41:49;103429.16;;;7.64;87.90
64886;BME280;51514;52.206;5.114;2023-02-11T01:44:28;103413.19;;;7.61;87.96
64886;BME280;51514;52.206;5.114;2023-02-11T01:46:54;103417.75;;;7.59;88.00
64886;BME280;51514;52.206;5.114;2023-02-11T01:49:41;103426.94;;;7.55;87.62
64886;BME280;51514;52.206;5.114;2023-02-11T01:52:18;103431.44;;;7.55;88.05
64886;BME280;51514;52.206;5.114;2023-02-11T01:54:49;103425.19;;;7.54;88.36
64886;BME280;51514;52.206;5.114;2023-02-11T01:57:36;103421.56;;;7.55;88.00
64886;BME280;51514;52.206;5.114;2023-02-11T02:05:52;103420.91;;;7.50;87.80
64886;BME280;51514;52.206;5.114;2023-02-11T02:10:50;103430.91;;;7.47;88.70
64886;BME280;51514;52.206;5.114;2023-02-11T02:13:23;103416.66;;;7.46;88.20
64886;BME280;51514;52.206;5.114;2023-02-11T02:15:51;103418.69;;;7.41;87.83
64886;BME280;51514;52.206;5.114;2023-02-11T02:35:00;103406.81;;;7.28;88.59
64886;BME280;51514;52.206;5.114;2023-02-11T02:40:13;103390.16;;;7.21;89.18
64886;BME280;51514;52.206;5.114;2023-02-11T02:42:41;103398.81;;;7.26;88.82
64886;BME280;51514;52.206;5.114;2023-02-11T02:45:09;103399.56;;;7.30;88.27
64886;BME280;51514;52.206;5.114;2023-02-11T02:47:35;103402.16;;;7.31;88.34
64886;BME280;51514;52.206;5.114;2023-02-11T02:50:02;103407.47;;;7.33;88.29
64886;BME280;51514;52.206;5.114;2023-02-11T02:52:40;103409.09;;;7.36;87.69
64886;BME280;51514;52.206;5.114;2023-02-11T02:55:23;103413.47;;;7.38;88.37
64886;BME280;51514;52.206;5.114;2023-02-11T03:01:07;103417.75;;;7.42;88.02
64886;BME280;51514;52.206;5.114;2023-02-11T03:04:22;103405.19;;;7.43;88.34
64886;BME280;51514;52.206;5.114;2023-02-11T03:06:54;103404.31;;;7.42;88.42
64886;BME280;51514;52.206;5.114;2023-02-11T03:09:45;103405.34;;;7.40;88.35
64886;BME280;51514;52.206;5.114;2023-02-11T03:12:14;103409.03;;;7.37;88.26
64886;BME280;51514;52.206;5.114;2023-02-11T03:14:41;103405.78;;;7.30;88.10
64886;BME280;51514;52.206;5.114;2023-02-11T03:17:07;103399.69;;;7.27;88.61
64886;BME280;51514;52.206;5.114;2023-02-11T03:19:37;103396.53;;;7.19;88.80
64886;BME280;51514;52.206;5.114;2023-02-11T03:22:07;103387.75;;;7.15;88.59
64886;BME280;51514;52.206;5.114;2023-02-11T03:24:37;103384.50;;;7.09;88.53
64886;BME280;51514;52.206;5.114;2023-02-11T03:27:29;103388.44;;;7.02;89.83
64886;BME280;51514;52.206;5.114;2023-02-11T03:30:00;103387.63;;;7.00;89.49
64886;BME280;51514;52.206;5.114;2023-02-11T03:32:37;103387.75;;;6.96;89.51
64886;BME280;51514;52.206;5.114;2023-02-11T03:35:12;103384.44;;;6.91;89.47
64886;BME280;51514;52.206;5.114;2023-02-11T03:37:42;103391.81;;;6.86;90.22
64886;BME280;51514;52.206;5.114;2023-02-11T03:40:13;103391.03;;;6.84;90.58
64886;BME280;51514;52.206;5.114;2023-02-11T03:42:47;103387.53;;;6.82;90.26
64886;BME280;51514;52.206;5.114;2023-02-11T03:45:17;103376.19;;;6.77;90.92
64886;BME280;51514;52.206;5.114;2023-02-11T03:47:48;103369.44;;;6.69;91.37
64886;BME280;51514;52.206;5.114;2023-02-11T03:50:15;103370.44;;;6.66;92.23
64886;BME280;51514;52.206;5.114;2023-02-11T03:52:41;103377.56;;;6.67;91.59
64886;BME280;51514;52.206;5.114;2023-02-11T03:55:12;103380.28;;;6.66;92.11
64886;BME280;51514;52.206;5.114;2023-02-11T03:57:39;103378.41;;;6.68;92.68
64886;BME280;51514;52.206;5.114;2023-02-11T04:00:06;103373.13;;;6.66;92.59
64886;BME280;51514;52.206;5.114;2023-02-11T04:02:35;103383.03;;;6.64;92.71
64886;BME280;51514;52.206;5.114;2023-02-11T04:05:01;103382.91;;;6.67;92.55
64886;BME280;51514;52.206;5.114;2023-02-11T04:07:27;103374.88;;;6.67;93.02
64886;BME280;51514;52.206;5.114;2023-02-11T04:09:53;103379.28;;;6.68;93.08
64886;BME280;51514;52.206;5.114;2023-02-11T04:12:18;103371.19;;;6.70;93.31
64886;BME280;51514;52.206;5.114;2023-02-11T04:14:43;103370.22;;;6.71;93.53
64886;BME280;51514;52.206;5.114;2023-02-11T04:17:09;103371.88;;;6.73;93.66
64886;BME280;51514;52.206;5.114;2023-02-11T04:19:34;103376.25;;;6.76;92.97
64886;BME280;51514;52.206;5.114;2023-02-11T04:22:00;103377.19;;;6.75;93.20
64886;BME280;51514;52.206;5.114;2023-02-11T04:24:25;103373.56;;;6.76;93.84
64886;BME280;51514;52.206;5.114;2023-02-11T04:26:50;103370.69;;;6.80;93.78
64886;BME280;51514;52.206;5.114;2023-02-11T04:29:17;103374.22;;;6.81;93.86
64886;BME280;51514;52.206;5.114;2023-02-11T04:31:42;103382.16;;;6.82;93.94
64886;BME280;51514;52.206;5.114;2023-02-11T04:34:07;103382.16;;;6.82;93.78
64886;BME280;51514;52.206;5.114;2023-02-11T04:36:33;103374.22;;;6.81;94.23
64886;BME280;51514;52.206;5.114;2023-02-11T04:38:58;103376.81;;;6.82;94.16
64886;BME280;51514;52.206;5.114;2023-02-11T04:41:23;103385.66;;;6.84;94.45
64886;BME280;51514;52.206;5.114;2023-02-11T04:43:49;103377.63;;;6.84;94.26
64886;BME280;51514;52.206;5.114;2023-02-11T04:46:14;103390.88;;;6.87;93.84
64886;BME280;51514;52.206;5.114;2023-02-11T04:48:39;103397.13;;;6.88;94.17
64886;BME280;51514;52.206;5.114;2023-02-11T04:51:05;103401.31;;;6.93;94.42
64886;BME280;51514;52.206;5.114;2023-02-11T04:53:30;103401.31;;;6.93;93.84
64886;BME280;51514;52.206;5.114;2023-02-11T04:55:55;103404.66;;;6.99;94.09
64886;BME280;51514;52.206;5.114;2023-02-11T04:58:21;103409.72;;;7.05;94.36
64886;BME280;51514;52.206;5.114;2023-02-11T05:00:46;103404.53;;;7.02;94.63
64886;BME280;51514;52.206;5.114;2023-02-11T05:03:12;103410.59;;;7.05;94.56
64886;BME280;51514;52.206;5.114;2023-02-11T05:05:39;103404.16;;;7.09;94.20
64886;BME280;51514;52.206;5.114;2023-02-11T05:08:05;103404.16;;;7.09;94.12
64886;BME280;51514;52.206;5.114;2023-02-11T05:10:30;103407.69;;;7.10;93.85
64886;BME280;51514;52.206;5.114;2023-02-11T05:12:56;103405.81;;;7.12;94.43
64886;BME280;51514;52.206;5.114;2023-02-11T05:15:21;103401.47;;;7.09;94.28
64886;BME280;51514;52.206;5.114;2023-02-11T05:17:46;103403.13;;;7.12;94.55
64886;BME280;51514;52.206;5.114;2023-02-11T05:20:12;103406.69;;;7.12;94.27
64886;BME280;51514;52.206;5.114;2023-02-11T05:22:37;103405.50;;;7.18;94.73
64886;BME280;51514;52.206;5.114;2023-02-11T05:25:02;103400.00;;;7.21;94.01
64886;BME280;51514;52.206;5.114;2023-02-11T05:27:28;103400.00;;;7.21;94.37
64886;BME280;51514;52.206;5.114;2023-02-11T05:29:53;103397.06;;;7.25;94.32
64886;BME280;51514;52.206;5.114;2023-02-11T05:32:19;103396.88;;;7.30;93.93
64886;BME280;51514;52.206;5.114;2023-02-11T05:34:44;103392.16;;;7.35;93.59
64886;BME280;51514;52.206;5.114;2023-02-11T05:37:09;103393.97;;;7.35;94.28
64886;BME280;51514;52.206;5.114;2023-02-11T05:39:35;103392.06;;;7.37;93.70
64886;BME280;51514;52.206;5.114;2023-02-11T05:42:00;103394.53;;;7.41;94.20
64886;BME280;51514;52.206;5.114;2023-02-11T05:44:25;103391.84;;;7.41;94.14
64886;BME280;51514;52.206;5.114;2023-02-11T05:46:51;103393.88;;;7.36;94.73
64886;BME280;51514;52.206;5.114;2023-02-11T05:49:16;103399.22;;;7.36;94.55
64886;BME280;51514;52.206;5.114;2023-02-11T05:51:42;103404.72;;;7.35;94.54
64886;BME280;51514;52.206;5.114;2023-02-11T05:54:07;103402.09;;;7.33;95.26
64886;BME280;51514;52.206;5.114;2023-02-11T05:56:33;103399.09;;;7.39;94.49
64886;BME280;51514;52.206;5.114;2023-02-11T05:58:59;103402.44;;;7.44;94.64
64886;BME280;51514;52.206;5.114;2023-02-11T06:01:25;103390.91;;;7.42;95.10
64886;BME280;51514;52.206;5.114;2023-02-11T06:03:50;103397.22;;;7.41;95.21
64886;BME280;51514;52.206;5.114;2023-02-11T06:06:15;103401.78;;;7.39;94.82
64886;BME280;51514;52.206;5.114;2023-02-11T06:08:41;103409.69;;;7.42;95.47
64886;BME280;51514;52.206;5.114;2023-02-11T06:11:07;103416.94;;;7.40;95.54
64886;BME280;51514;52.206;5.114;2023-02-11T06:13:33;103410.78;;;7.38;95.99
64886;BME280;51514;52.206;5.114;2023-02-11T06:16:00;103411.44;;;7.43;94.99
64886;BME280;51514;52.206;5.114;2023-02-11T06:18:26;103414.91;;;7.45;95.09
64886;BME280;51514;52.206;5.114;2023-02-11T06:20:51;103412.94;;;7.49;94.58
64886;BME280;51514;52.206;5.114;2023-02-11T06:23:17;103410.25;;;7.49;95.31
64886;BME280;51514;52.206;5.114;2023-02-11T06:25:42;103405.59;;;7.52;95.24
64886;BME280;51514;52.206;5.114;2023-02-11T06:28:07;103409.88;;;7.56;94.91
64886;BME280;51514;52.206;5.114;2023-02-11T06:30:35;103417.75;;;7.59;94.77
64886;BME280;51514;52.206;5.114;2023-02-11T06:33:00;103411.44;;;7.60;95.52
64886;BME280;51514;52.206;5.114;2023-02-11T06:35:26;103410.38;;;7.64;94.89
64886;BME280;51514;52.206;5.114;2023-02-11T06:37:51;103411.94;;;7.68;94.94
64886;BME280;51514;52.206;5.114;2023-02-11T06:40:18;103405.31;;;7.76;94.49
64886;BME280;51514;52.206;5.114;2023-02-11T06:42:43;103396.31;;;7.77;94.57
64886;BME280;51514;52.206;5.114;2023-02-11T06:45:09;103407.06;;;7.77;94.98
64886;BME280;51514;52.206;5.114;2023-02-11T06:47:35;103407.06;;;7.77;95.20
64886;BME280;51514;52.206;5.114;2023-02-11T06:50:01;103411.50;;;7.78;95.36
64886;BME280;51514;52.206;5.114;2023-02-11T06:52:26;103409.75;;;7.77;95.54
64886;BME280;51514;52.206;5.114;2023-02-11T06:54:51;103412.34;;;7.78;95.81
64886;BME280;51514;52.206;5.114;2023-02-11T06:57:17;103413.31;;;7.77;95.76
64886;BME280;51514;52.206;5.114;2023-02-11T06:59:42;103414.06;;;7.79;95.96
64886;BME280;51514;52.206;5.114;2023-02-11T07:02:10;103419.28;;;7.82;95.40
64886;BME280;51514;52.206;5.114;2023-02-11T07:04:36;103407.53;;;7.85;95.47
64886;BME280;51514;52.206;5.114;2023-02-11T07:07:01;103411.81;;;7.89;95.72
64886;BME280;51514;52.206;5.114;2023-02-11T07:09:26;103408.31;;;7.87;95.88
64886;BME280;51514;52.206;5.114;2023-02-11T07:11:52;103418.91;;;7.90;96.07
64886;BME280;51514;52.206;5.114;2023-02-11T07:14:17;103426.94;;;7.90;95.90
64886;BME280;51514;52.206;5.114;2023-02-11T07:16:42;103428.53;;;7.94;95.80
64886;BME280;51514;52.206;5.114;2023-02-11T07:19:08;103429.28;;;7.97;95.81
64886;BME280;51514;52.206;5.114;2023-02-11T07:21:33;103431.88;;;7.99;95.78
64886;BME280;51514;52.206;5.114;2023-02-11T07:23:59;103424.78;;;7.98;95.64
64886;BME280;51514;52.206;5.114;2023-02-11T07:26:24;103436.38;;;7.98;95.67
64886;BME280;51514;52.206;5.114;2023-02-11T07:28:51;103440.72;;;8.01;96.15
64886;BME280;51514;52.206;5.114;2023-02-11T07:31:22;103441.50;;;8.03;95.55
64886;BME280;51514;52.206;5.114;2023-02-11T07:33:48;103443.03;;;8.09;95.69
64886;BME280;51514;52.206;5.114;2023-02-11T07:36:14;103434.88;;;8.10;95.68
64886;BME280;51514;52.206;5.114;2023-02-11T07:38:41;103444.03;;;8.06;95.91
64886;BME280;51514;52.206;5.114;2023-02-11T07:41:09;103448.47;;;8.07;95.77
64886;BME280;51514;52.206;5.114;2023-02-11T07:43:36;103446.59;;;8.09;95.78
64886;BME280;51514;52.206;5.114;2023-02-11T07:46:05;103443.91;;;8.09;96.01
64886;BME280;51514;52.206;5.114;2023-02-11T07:48:31;103452.75;;;8.11;96.44
64886;BME280;51514;52.206;5.114;2023-02-11T07:51:11;103461.75;;;8.10;96.16
64886;BME280;51514;52.206;5.114;2023-02-11T07:53:37;103458.28;;;8.08;95.87
64886;BME280;51514;52.206;5.114;2023-02-11T07:56:04;103461.91;;;8.07;96.31
64886;BME280;51514;52.206;5.114;2023-02-11T07:58:30;103445.78;;;8.07;96.81
64886;BME280;51514;52.206;5.114;2023-02-11T08:01:07;103459.28;;;8.05;96.90
64886;BME280;51514;52.206;5.114;2023-02-11T08:03:33;103456.53;;;8.07;96.92
64886;BME280;51514;52.206;5.114;2023-02-11T08:06:03;103461.91;;;8.07;97.03
64886;BME280;51514;52.206;5.114;2023-02-11T08:08:29;103465.38;;;8.09;96.67
64886;BME280;51514;52.206;5.114;2023-02-11T08:10:54;103465.38;;;8.09;97.42
64886;BME280;51514;52.206;5.114;2023-02-11T08:13:19;103456.38;;;8.10;97.67
64886;BME280;51514;52.206;5.114;2023-02-11T08:15:45;103463.31;;;8.14;96.99
64886;BME280;51514;52.206;5.114;2023-02-11T08:18:10;103459.69;;;8.15;96.58
64886;BME280;51514;52.206;5.114;2023-02-11T08:20:35;103464.13;;;8.16;96.65
64886;BME280;51514;52.206;5.114;2023-02-11T08:23:01;103470.22;;;8.20;96.95
64886;BME280;51514;52.206;5.114;2023-02-11T08:25:26;103458.59;;;8.19;97.19
64886;BME280;51514;52.206;5.114;2023-02-11T08:27:51;103465.78;;;8.19;97.83
64886;BME280;51514;52.206;5.114;2023-02-11T08:30:17;103458.41;;;8.22;97.61
64886;BME280;51514;52.206;5.114;2023-02-11T08:32:42;103457.31;;;8.26;96.75
64886;BME280;51514;52.206;5.114;2023-02-11T08:35:08;103459.94;;;8.28;96.92
64886;BME280;51514;52.206;5.114;2023-02-11T08:37:36;103471.47;;;8.30;96.83
64886;BME280;51514;52.206;5.114;2023-02-11T08:40:01;103481.13;;;8.34;96.65
64886;BME280;51514;52.206;5.114;2023-02-11T08:42:27;103473.19;;;8.32;96.36
64886;BME280;51514;52.206;5.114;2023-02-11T08:44:52;103480.09;;;8.36;96.39
64886;BME280;51514;52.206;5.114;2023-02-11T08:47:17;103483.44;;;8.41;96.46
64886;BME280;51514;52.206;5.114;2023-02-11T08:49:43;103481.56;;;8.44;96.32
64886;BME280;51514;52.206;5.114;2023-02-11T08:52:08;103482.25;;;8.47;96.16
64886;BME280;51514;52.206;5.114;2023-02-11T08:54:33;103487.47;;;8.50;96.42
64886;BME280;51514;52.206;5.114;2023-02-11T08:56:59;103496.13;;;8.55;96.34
64886;BME280;51514;52.206;5.114;2023-02-11T08:59:26;103485.22;;;8.58;96.15
64886;BME280;51514;52.206;5.114;2023-02-11T09:01:51;103487.84;;;8.60;95.96
64886;BME280;51514;52.206;5.114;2023-02-11T09:04:17;103492.19;;;8.62;95.91
64886;BME280;51514;52.206;5.114;2023-02-11T09:06:42;103489.25;;;8.67;95.24
64886;BME280;51514;52.206;5.114;2023-02-11T09:09:11;103488.28;;;8.68;95.28
64886;BME280;51514;52.206;5.114;2023-02-11T09:11:38;103499.31;;;8.63;95.71
64886;BME280;51514;52.206;5.114;2023-02-11T09:14:05;103493.75;;;8.66;95.54
64886;BME280;51514;52.206;5.114;2023-02-11T09:16:34;103506.97;;;8.71;95.87
64886;BME280;51514;52.206;5.114;2023-02-11T09:19:00;103508.06;;;8.67;95.67
64886;BME280;51514;52.206;5.114;2023-02-11T09:21:26;103508.00;;;8.68;95.77
64886;BME280;51514;52.206;5.114;2023-02-11T09:23:52;103508.88;;;8.69;95.65
64886;BME280;51514;52.206;5.114;2023-02-11T09:26:25;103510.44;;;8.73;95.85
64886;BME280;51514;52.206;5.114;2023-02-11T09:28:50;103515.69;;;8.76;95.79
64886;BME280;51514;52.206;5.114;2023-02-11T09:31:18;103513.53;;;8.83;95.71
64886;BME280;51514;52.206;5.114;2023-02-11T09:33:46;103514.13;;;8.88;95.27
64886;BME280;51514;52.206;5.114;2023-02-11T09:36:33;103526.56;;;8.90;95.51
64886;BME280;51514;52.206;5.114;2023-02-11T09:39:00;103524.56;;;8.94;95.05
64886;BME280;51514;52.206;5.114;2023-02-11T09:41:34;103512.69;;;8.98;95.04
64886;BME280;51514;52.206;5.114;2023-02-11T09:44:05;103506.19;;;9.02;95.04
64886;BME280;51514;52.206;5.114;2023-02-11T09:46:35;103513.06;;;9.07;94.68
64886;BME280;51514;52.206;5.114;2023-02-11T09:49:02;103512.66;;;9.15;94.75
64886;BME280;51514;52.206;5.114;2023-02-11T09:51:48;103518.91;;;9.15;94.59
64886;BME280;51514;52.206;5.114;2023-02-11T09:54:27;103529.16;;;9.25;94.24
64886;BME280;51514;52.206;5.114;2023-02-11T09:56:54;103537.00;;;9.29;94.33
64886;BME280;51514;52.206;5.114;2023-02-11T09:59:19;103541.16;;;9.35;93.92
64886;BME280;51514;52.206;5.114;2023-02-11T10:02:12;103556.00;;;9.42;94.29
64886;BME280;51514;52.206;5.114;2023-02-11T10:23:44;103570.66;;;9.69;92.24
64886;BME280;51514;52.206;5.114;2023-02-11T10:26:13;103580.38;;;9.72;92.34
64886;BME280;51514;52.206;5.114;2023-02-11T10:28:41;103576.47;;;9.77;92.29
64886;BME280;51514;52.206;5.114;2023-02-11T10:31:12;103578.91;;;9.82;92.32
64886;BME280;51514;52.206;5.114;2023-02-11T10:33:46;103571.50;;;9.85;91.98
64886;BME280;51514;52.206;5.114;2023-02-11T10:36:17;103591.84;;;9.91;91.76
64886;BME280;51514;52.206;5.114;2023-02-11T10:38:42;103591.50;;;9.97;91.73
64886;BME280;51514;52.206;5.114;2023-02-11T10:41:31;103588.47;;;10.03;91.69
64886;BME280;51514;52.206;5.114;2023-02-11T10:43:59;103587.94;;;10.12;91.60
64886;BME280;51514;52.206;5.114;2023-02-11T10:46:30;103590.91;;;10.23;91.18
64886;BME280;51514;52.206;5.114;2023-02-11T10:48:57;103587.50;;;10.36;91.00
64886;BME280;51514;52.206;5.114;2023-02-11T10:51:23;103581.16;;;10.51;90.57
64886;BME280;51514;52.206;5.114;2023-02-11T10:54:09;103585.75;;;10.65;88.44
64886;BME280;51514;52.206;5.114;2023-02-11T10:56:45;103583.28;;;10.76;88.20
64886;BME280;51514;52.206;5.114;2023-02-11T10:59:29;103592.63;;;10.84;87.02
64886;BME280;51514;52.206;5.114;2023-02-11T11:02:04;103582.72;;;10.85;86.36
64886;BME280;51514;52.206;5.114;2023-02-11T11:04:41;103582.63;;;10.86;85.62
64886;BME280;51514;52.206;5.114;2023-02-11T11:07:30;103582.34;;;10.91;85.28
64886;BME280;51514;52.206;5.114;2023-02-11T11:10:05;103578.97;;;10.87;84.49
64886;BME280;51514;52.206;5.114;2023-02-11T11:12:34;103580.41;;;10.93;84.56
64886;BME280;51514;52.206;5.114;2023-02-11T11:17:34;103585.06;;;10.91;83.88
64886;BME280;51514;52.206;5.114;2023-02-11T11:20:25;103586.00;;;10.90;82.99
64886;BME280;51514;52.206;5.114;2023-02-11T11:23:06;103589.38;;;10.93;83.30
64886;BME280;51514;52.206;5.114;2023-02-11T11:25:32;103589.19;;;10.96;83.10
64886;BME280;51514;52.206;5.114;2023-02-11T11:28:00;103590.16;;;10.95;82.45
64886;BME280;51514;52.206;5.114;2023-02-11T11:30:32;103595.47;;;10.97;82.54
64886;BME280;51514;52.206;5.114;2023-02-11T11:32:59;103597.13;;;11.00;82.48
64886;BME280;51514;52.206;5.114;2023-02-11T11:35:27;103604.25;;;11.01;81.80
64886;BME280;51514;52.206;5.114;2023-02-11T11:37:58;103606.94;;;11.01;81.97
64886;BME280;51514;52.206;5.114;2023-02-11T11:40:27;103606.00;;;11.02;81.13
64886;BME280;51514;52.206;5.114;2023-02-11T11:45:52;103613.63;;;11.09;81.50
64886;BME280;51514;52.206;5.114;2023-02-11T11:48:21;103617.00;;;11.13;81.12
64886;BME280;51514;52.206;5.114;2023-02-11T11:50:52;103618.53;;;11.17;81.24
64886;BME280;51514;52.206;5.114;2023-02-11T11:53:46;103613.53;;;11.11;80.19
64886;BME280;51514;52.206;5.114;2023-02-11T11:56:18;103615.53;;;11.07;80.44
64886;BME280;51514;52.206;5.114;2023-02-11T11:58:46;103621.97;;;11.05;80.81
64886;BME280;51514;52.206;5.114;2023-02-11T12:09:37;103609.13;;;10.94;80.62
64886;BME280;51514;52.206;5.114;2023-02-11T12:14:46;103607.63;;;11.04;80.35
64886;BME280;51514;52.206;5.114;2023-02-11T12:20:15;103609.38;;;11.19;80.02
64886;BME280;51514;52.206;5.114;2023-02-11T12:23:10;103599.56;;;11.32;79.88
64886;BME280;51514;52.206;5.114;2023-02-11T12:26:06;103597.69;;;11.47;79.65
64886;BME280;51514;52.206;5.114;2023-02-11T12:31:25;103594.31;;;11.58;77.81
64886;BME280;51514;52.206;5.114;2023-02-11T12:48:03;103595.28;;;11.85;77.42
64886;BME280;51514;52.206;5.114;2023-02-11T12:53:22;103599.91;;;11.83;77.17
64886;BME280;51514;52.206;5.114;2023-02-11T12:55:57;103598.94;;;11.84;77.20
64886;BME280;51514;52.206;5.114;2023-02-11T12:58:26;103602.25;;;11.89;76.94
64886;BME280;51514;52.206;5.114;2023-02-11T13:00:59;103593.03;;;11.92;77.08
64886;BME280;51514;52.206;5.114;2023-02-11T13:03:45;103602.97;;;11.91;76.99
64886;BME280;51514;52.206;5.114;2023-02-11T13:06:14;103600.84;;;11.96;77.02
64886;BME280;51514;52.206;5.114;2023-02-11T13:08:46;103607.59;;;12.03;77.05
64886;BME280;51514;52.206;5.114;2023-02-11T13:11:17;103595.50;;;12.09;76.62
64886;BME280;51514;52.206;5.114;2023-02-11T13:16:19;103587.56;;;12.20;75.84
64886;BME280;51514;52.206;5.114;2023-02-11T13:21:37;103570.03;;;12.26;75.79
64886;BME280;51514;52.206;5.114;2023-02-11T13:24:22;103575.25;;;12.29;75.07
64886;BME280;51514;52.206;5.114;2023-02-11T13:30:00;103576.66;;;12.34;74.73
64886;BME280;51514;52.206;5.114;2023-02-11T13:35:33;103569.41;;;12.35;74.85
64886;BME280;51514;52.206;5.114;2023-02-11T13:38:04;103574.19;;;12.31;74.86
64886;BME280;51514;52.206;5.114;2023-02-11T13:40:38;103569.50;;;12.21;74.77
64886;BME280;51514;52.206;5.114;2023-02-11T13:43:06;103570.66;;;12.17;75.17
64886;BME280;51514;52.206;5.114;2023-02-11T13:45:45;103578.00;;;12.15;75.25
64886;BME280;51514;52.206;5.114;2023-02-11T13:48:30;103588.81;;;12.15;74.82
64886;BME280;51514;52.206;5.114;2023-02-11T13:51:05;103588.81;;;12.15;74.60
64886;BME280;51514;52.206;5.114;2023-02-11T13:53:46;103587.94;;;12.14;74.69
64886;BME280;51514;52.206;5.114;2023-02-11T13:58:54;103582.16;;;12.20;74.91
64886;BME280;51514;52.206;5.114;2023-02-11T14:04:23;103586.69;;;12.20;74.48
64886;BME280;51514;52.206;5.114;2023-02-11T14:10:49;103581.38;;;12.18;73.68
64886;BME280;51514;52.206;5.114;2023-02-11T14:13:25;103572.41;;;12.18;74.36
64886;BME280;51514;52.206;5.114;2023-02-11T14:19:03;103586.13;;;12.15;74.35
64886;BME280;51514;52.206;5.114;2023-02-11T14:21:32;103589.88;;;12.12;73.92
64886;BME280;51514;52.206;5.114;2023-02-11T14:35:22;103589.84;;;11.99;73.74
64886;BME280;51514;52.206;5.114;2023-02-11T14:38:02;103594.88;;;11.91;74.13
64886;BME280;51514;52.206;5.114;2023-02-11T14:40:39;103587.53;;;11.93;73.82
64886;BME280;51514;52.206;5.114;2023-02-11T14:43:44;103585.03;;;11.90;74.14
64886;BME280;51514;52.206;5.114;2023-02-11T14:46:14;103585.88;;;11.91;74.34
64886;BME280;51514;52.206;5.114;2023-02-11T14:48:44;103581.56;;;11.88;74.67
64886;BME280;51514;52.206;5.114;2023-02-11T14:51:31;103594.31;;;11.86;74.48
64886;BME280;51514;52.206;5.114;2023-02-11T14:54:16;103587.84;;;11.89;74.30
64886;BME280;51514;52.206;5.114;2023-02-11T14:56:42;103597.13;;;11.85;74.73
64886;BME280;51514;52.206;5.114;2023-02-11T14:59:15;103594.50;;;11.83;74.53
64886;BME280;51514;52.206;5.114;2023-02-11T15:01:45;103600.09;;;11.80;74.95
64886;BME280;51514;52.206;5.114;2023-02-11T15:04:28;103603.13;;;11.76;75.16
64886;BME280;51514;52.206;5.114;2023-02-11T15:06:55;103599.22;;;11.80;75.24
64886;BME280;51514;52.206;5.114;2023-02-11T15:09:35;103599.47;;;11.77;74.96
64886;BME280;51514;52.206;5.114;2023-02-11T15:12:02;103598.06;;;11.69;75.28
64886;BME280;51514;52.206;5.114;2023-02-11T15:14:33;103606.94;;;11.71;75.82